createdAt,value
2022-09-26T00:01:41.441Z,7.57
2022-09-26T00:04:13.786Z,7.20
2022-09-26T00:06:42.448Z,7.70
2022-09-26T00:09:12.314Z,8.90
2022-09-26T00:11:40.704Z,7.57
2022-09-26T00:14:13.616Z,7.30
2022-09-26T00:16:42.237Z,8.30
2022-09-26T00:19:10.435Z,7.47
2022-09-26T00:21:38.983Z,7.40
2022-09-26T00:24:07.683Z,7.30
2022-09-26T00:26:38.575Z,6.73
2022-09-26T00:29:09.309Z,6.77
2022-09-26T00:31:41.001Z,7.07
2022-09-26T00:34:09.324Z,6.60
2022-09-26T00:36:38.901Z,7.00
2022-09-26T00:39:08.763Z,6.30
2022-09-26T00:41:38.857Z,6.07
2022-09-26T00:44:48.600Z,6.17
2022-09-26T00:47:37.136Z,6.53
2022-09-26T00:50:13.381Z,6.30
2022-09-26T00:52:46.090Z,6.03
2022-09-26T00:55:18.838Z,6.10
2022-09-26T00:57:53.637Z,6.60
2022-09-26T01:00:23.895Z,6.27
2022-09-26T01:02:54.332Z,6.73
2022-09-26T01:05:24.451Z,6.07
2022-09-26T01:07:55.000Z,6.63
2022-09-26T01:10:24.872Z,6.07
2022-09-26T01:12:55.513Z,6.90
2022-09-26T01:15:23.714Z,5.80
2022-09-26T01:17:52.631Z,6.07
2022-09-26T01:20:27.750Z,5.53
2022-09-26T01:23:28.546Z,6.43
2022-09-26T01:26:37.242Z,5.70
2022-09-26T01:29:43.858Z,5.70
2022-09-26T01:32:39.721Z,6.03
2022-09-26T01:35:13.759Z,5.57
2022-09-26T01:37:51.148Z,5.80
2022-09-26T01:40:26.281Z,5.73
2022-09-26T01:43:06.783Z,5.80
2022-09-26T01:45:43.681Z,5.77
2022-09-26T01:48:18.837Z,4.83
2022-09-26T01:50:51.186Z,5.87
2022-09-26T01:53:23.709Z,5.73
2022-09-26T01:55:56.091Z,5.23
2022-09-26T01:58:29.110Z,5.17
2022-09-26T02:01:01.202Z,5.77
2022-09-26T02:03:37.782Z,5.67
2022-09-26T02:06:10.354Z,5.83
2022-09-26T02:08:42.744Z,5.70
2022-09-26T02:11:15.553Z,5.80
2022-09-26T02:13:51.883Z,5.53
2022-09-26T02:16:24.534Z,5.43
2022-09-26T02:18:58.775Z,6.00
2022-09-26T02:21:27.499Z,6.30
2022-09-26T02:23:55.953Z,6.30
2022-09-26T02:26:25.206Z,6.27
2022-09-26T02:28:53.546Z,6.30
2022-09-26T02:31:25.634Z,6.47
2022-09-26T02:33:55.735Z,6.43
2022-09-26T02:36:24.949Z,6.00
2022-09-26T02:38:53.190Z,5.67
2022-09-26T02:41:29.999Z,5.93
2022-09-26T02:44:21.177Z,6.40
2022-09-26T02:47:06.802Z,6.47
2022-09-26T02:49:51.005Z,6.40
2022-09-26T02:52:33.925Z,7.27
2022-09-26T02:55:14.071Z,7.57
2022-09-26T02:57:54.362Z,6.50
2022-09-26T03:00:25.332Z,6.83
2022-09-26T03:03:03.434Z,6.37
2022-09-26T03:05:36.193Z,5.67
2022-09-26T03:08:09.640Z,5.70
2022-09-26T03:10:39.164Z,5.50
2022-09-26T03:13:10.719Z,4.90
2022-09-26T03:15:41.805Z,4.63
2022-09-26T03:18:15.842Z,4.43
2022-09-26T03:20:46.710Z,4.50
2022-09-26T03:23:15.034Z,4.03
2022-09-26T03:25:43.485Z,4.93
2022-09-26T03:28:13.143Z,4.60
2022-09-26T03:30:41.256Z,4.67
2022-09-26T03:33:09.527Z,4.60
2022-09-26T03:35:37.674Z,4.13
2022-09-26T03:38:10.114Z,3.93
2022-09-26T03:40:42.389Z,4.07
2022-09-26T03:43:11.183Z,4.30
2022-09-26T03:45:39.555Z,3.67
2022-09-26T03:48:07.996Z,3.80
2022-09-26T03:50:36.080Z,4.27
2022-09-26T03:53:04.262Z,4.43
2022-09-26T03:55:34.170Z,4.40
2022-09-26T03:58:02.742Z,4.80
2022-09-26T04:00:31.097Z,4.57
2022-09-26T04:03:03.449Z,4.90
2022-09-26T04:05:31.698Z,4.77
2022-09-26T04:08:01.802Z,5.60
2022-09-26T04:10:30.008Z,5.03
2022-09-26T04:12:59.817Z,4.70
2022-09-26T04:15:29.421Z,5.10
2022-09-26T04:17:58.124Z,5.33
2022-09-26T04:20:26.550Z,5.17
2022-09-26T04:22:55.138Z,5.17
2022-09-26T04:25:23.739Z,5.63
2022-09-26T04:27:52.184Z,5.90
2022-09-26T04:30:22.338Z,5.17
2022-09-26T04:32:50.926Z,5.70
2022-09-26T04:35:19.157Z,5.70
2022-09-26T04:37:47.688Z,5.10
2022-09-26T04:40:16.016Z,5.70
2022-09-26T04:42:44.512Z,5.37
2022-09-26T04:45:12.770Z,5.40
2022-09-26T04:47:42.724Z,5.57
2022-09-26T04:50:11.163Z,5.50
2022-09-26T04:52:39.322Z,5.87
2022-09-26T04:55:08.232Z,6.00
2022-09-26T04:57:38.107Z,4.83
2022-09-26T05:00:07.562Z,5.97
2022-09-26T05:02:35.654Z,6.43
2022-09-26T05:05:06.836Z,6.00
2022-09-26T05:07:34.946Z,5.67
2022-09-26T05:10:03.033Z,5.47
2022-09-26T05:12:34.193Z,5.63
2022-09-26T05:15:02.325Z,5.50
2022-09-26T05:17:31.242Z,5.67
2022-09-26T05:20:01.052Z,5.37
2022-09-26T05:22:33.019Z,5.73
2022-09-26T05:25:19.041Z,5.63
2022-09-26T05:27:47.778Z,5.73
2022-09-26T05:30:16.098Z,6.27
2022-09-26T05:32:46.094Z,6.00
2022-09-26T05:35:14.262Z,6.83
2022-09-26T05:37:44.067Z,6.97
2022-09-26T05:40:30.407Z,7.37
2022-09-26T05:43:02.601Z,7.50
2022-09-26T05:45:31.550Z,8.00
2022-09-26T05:47:59.650Z,8.20
2022-09-26T05:50:28.119Z,8.17
2022-09-26T05:53:00.058Z,8.68
2022-09-26T05:55:28.734Z,7.80
2022-09-26T05:57:59.279Z,4.53
2022-09-26T06:00:28.372Z,6.07
2022-09-26T06:02:57.502Z,5.40
2022-09-26T06:05:26.765Z,6.00
2022-09-26T06:07:55.142Z,5.83
2022-09-26T06:10:24.634Z,7.47
2022-09-26T06:12:53.144Z,7.57
2022-09-26T06:15:21.675Z,8.17
2022-09-26T06:17:49.807Z,6.50
2022-09-26T06:20:18.406Z,6.73
2022-09-26T06:22:46.974Z,6.50
2022-09-26T06:25:15.163Z,7.40
2022-09-26T06:27:45.027Z,7.60
2022-09-26T06:30:13.630Z,7.73
2022-09-26T06:32:41.796Z,7.20
2022-09-26T06:35:11.917Z,6.60
2022-09-26T06:37:40.638Z,6.40
2022-09-26T06:40:11.590Z,5.63
2022-09-26T06:42:40.230Z,7.27
2022-09-26T06:45:11.731Z,6.37
2022-09-26T06:47:40.055Z,7.73
2022-09-26T06:50:09.424Z,7.37
2022-09-26T06:52:37.739Z,6.90
2022-09-26T06:55:07.790Z,6.33
2022-09-26T06:57:40.322Z,8.40
2022-09-26T07:00:12.357Z,7.20
2022-09-26T07:02:50.027Z,7.00
2022-09-26T07:05:26.386Z,8.03
2022-09-26T07:07:55.600Z,7.70
2022-09-26T07:10:24.725Z,7.47
2022-09-26T07:12:53.213Z,8.23
2022-09-26T07:15:23.242Z,7.77
2022-09-26T07:17:51.625Z,8.47
2022-09-26T07:20:21.533Z,7.17
2022-09-26T07:22:49.983Z,7.47
2022-09-26T07:25:18.513Z,7.50
2022-09-26T07:27:51.750Z,7.80
2022-09-26T07:30:20.833Z,7.63
2022-09-26T07:32:50.981Z,7.50
2022-09-26T07:35:19.550Z,7.43
2022-09-26T07:37:54.738Z,8.10
2022-09-26T07:40:23.173Z,6.90
2022-09-26T07:43:09.531Z,7.43
2022-09-26T07:45:58.687Z,7.60
2022-09-26T07:48:46.150Z,6.60
2022-09-26T07:51:14.448Z,6.27
2022-09-26T07:53:42.862Z,5.57
2022-09-26T07:56:12.317Z,4.60
2022-09-26T07:58:42.230Z,4.77
2022-09-26T08:01:12.506Z,5.07
2022-09-26T08:03:43.593Z,4.33
2022-09-26T08:06:12.963Z,4.40
2022-09-26T08:08:41.456Z,4.77
2022-09-26T08:11:16.457Z,4.53
2022-09-26T08:13:45.732Z,4.10
2022-09-26T08:16:19.920Z,4.67
2022-09-26T08:18:49.590Z,4.00
2022-09-26T08:21:18.113Z,4.33
2022-09-26T08:23:47.398Z,3.80
2022-09-26T08:26:24.112Z,4.00
2022-09-26T08:28:52.930Z,4.17
2022-09-26T08:31:22.226Z,3.60
2022-09-26T08:33:51.797Z,3.67
2022-09-26T08:36:21.040Z,3.57
2022-09-26T08:38:51.202Z,3.17
2022-09-26T08:41:33.812Z,3.03
2022-09-26T08:44:14.557Z,3.80
2022-09-26T08:46:58.805Z,2.97
2022-09-26T08:49:49.122Z,3.07
2022-09-26T08:52:33.501Z,3.47
2022-09-26T08:55:07.089Z,3.07
2022-09-26T08:57:40.568Z,3.03
2022-09-26T09:00:19.446Z,3.10
2022-09-26T09:03:01.561Z,2.90
2022-09-26T09:05:34.157Z,3.30
2022-09-26T09:08:08.651Z,3.07
2022-09-26T09:10:47.314Z,2.90
2022-09-26T09:13:40.089Z,2.63
2022-09-26T09:16:19.349Z,2.40
2022-09-26T09:18:55.427Z,2.93
2022-09-26T09:21:41.595Z,2.53
2022-09-26T09:24:20.220Z,2.73
2022-09-26T09:30:15.749Z,2.73
2022-09-26T09:32:50.377Z,2.27
2022-09-26T09:35:25.316Z,2.37
2022-09-26T09:37:55.511Z,2.20
2022-09-26T09:40:29.286Z,2.40
2022-09-26T09:43:02.747Z,2.20
2022-09-26T09:45:42.438Z,2.30
2022-09-26T09:48:13.178Z,2.00
2022-09-26T09:50:51.319Z,2.33
2022-09-26T09:53:37.909Z,2.50
2022-09-26T09:56:17.703Z,2.30
2022-09-26T09:59:15.263Z,2.80
2022-09-26T10:01:46.578Z,2.73
2022-09-26T10:04:35.091Z,3.50
2022-09-26T10:07:05.725Z,2.50
2022-09-26T10:09:40.967Z,2.80
2022-09-26T10:12:18.111Z,3.17
2022-09-26T10:14:51.158Z,3.20
2022-09-26T10:17:21.782Z,3.30
2022-09-26T10:19:50.189Z,3.13
2022-09-26T10:22:29.495Z,4.00
2022-09-26T10:25:06.122Z,3.73
2022-09-26T10:27:38.273Z,3.77
2022-09-26T10:30:26.360Z,3.40
2022-09-26T10:32:57.136Z,3.73
2022-09-26T10:35:29.990Z,3.13
2022-09-26T10:38:03.981Z,3.43
2022-09-26T10:40:47.998Z,3.37
2022-09-26T10:43:30.067Z,3.43
2022-09-26T10:46:05.252Z,3.80
2022-09-26T10:48:47.486Z,3.00
2022-09-26T10:51:24.238Z,3.50
2022-09-26T10:53:57.549Z,4.20
2022-09-26T10:56:31.838Z,4.07
2022-09-26T10:59:04.662Z,3.90
2022-09-26T11:01:34.373Z,3.80
2022-09-26T11:04:15.504Z,3.90
2022-09-26T11:06:44.414Z,4.23
2022-09-26T11:09:20.531Z,4.23
2022-09-26T11:11:52.667Z,3.60
2022-09-26T11:14:29.439Z,4.43
2022-09-26T11:16:58.365Z,4.10
2022-09-26T11:19:37.990Z,4.27
2022-09-26T11:22:14.725Z,3.77
2022-09-26T11:24:48.963Z,3.90
2022-09-26T11:27:25.763Z,4.23
2022-09-26T11:29:57.629Z,3.87
2022-09-26T11:32:31.572Z,3.60
2022-09-26T11:35:03.864Z,4.47
2022-09-26T11:38:03.582Z,3.80
2022-09-26T11:40:59.966Z,4.70
2022-09-26T11:43:48.795Z,4.40
2022-09-26T11:46:31.546Z,4.80
2022-09-26T11:49:18.262Z,4.90
2022-09-26T11:52:00.951Z,5.43
2022-09-26T11:54:47.347Z,5.20
2022-09-26T11:57:32.074Z,4.90
2022-09-26T12:00:10.222Z,5.13
2022-09-26T12:03:02.575Z,5.27
2022-09-26T12:05:44.600Z,5.30
2022-09-26T12:08:34.495Z,5.17
2022-09-26T12:11:10.232Z,4.60
2022-09-26T12:13:52.339Z,4.93
2022-09-26T12:16:28.851Z,3.97
2022-09-26T12:19:05.406Z,4.17
2022-09-26T12:22:05.206Z,3.97
2022-09-26T12:24:43.709Z,4.00
2022-09-26T12:27:19.400Z,4.20
2022-09-26T12:29:55.225Z,4.40
2022-09-26T12:32:48.549Z,4.10
2022-09-26T12:35:35.516Z,3.87
2022-09-26T12:38:24.641Z,3.17
2022-09-26T12:41:04.798Z,3.83
2022-09-26T12:43:56.865Z,4.23
2022-09-26T12:46:40.535Z,4.50
2022-09-26T12:49:34.854Z,4.00
2022-09-26T12:52:16.468Z,3.40
2022-09-26T12:55:10.010Z,3.67
2022-09-26T12:57:49.070Z,4.20
2022-09-26T13:00:22.069Z,4.20
2022-09-26T13:03:32.932Z,3.97
2022-09-26T13:06:21.270Z,3.83
2022-09-26T13:08:58.656Z,3.60
2022-09-26T13:11:37.143Z,3.47
2022-09-26T13:14:37.745Z,3.23
2022-09-26T13:17:13.545Z,2.83
2022-09-26T13:19:48.330Z,3.60
2022-09-26T13:22:27.438Z,3.03
2022-09-26T13:25:00.453Z,3.30
2022-09-26T13:27:37.311Z,3.47
2022-09-26T13:30:09.548Z,2.90
2022-09-26T13:32:49.490Z,2.70
2022-09-26T13:35:21.747Z,2.70
2022-09-26T13:38:10.094Z,3.20
2022-09-26T13:40:45.029Z,2.40
2022-09-26T13:43:25.676Z,2.80
2022-09-26T13:45:59.059Z,2.73
2022-09-26T13:48:50.305Z,2.53
2022-09-26T13:51:22.523Z,2.93
2022-09-26T13:54:03.094Z,2.60
2022-09-26T13:56:47.704Z,2.57
2022-09-26T14:00:02.050Z,2.67
2022-09-26T14:02:32.076Z,3.27
2022-09-26T14:05:39.473Z,2.80
2022-09-26T14:08:48.017Z,2.63
2022-09-26T14:11:30.827Z,2.97
2022-09-26T14:14:25.333Z,2.60
2022-09-26T14:16:55.618Z,2.60
2022-09-26T14:19:35.830Z,2.90
2022-09-26T14:22:06.997Z,2.60
2022-09-26T14:24:37.732Z,2.30
2022-09-26T14:27:42.714Z,2.10
2022-09-26T14:30:27.340Z,2.20
2022-09-26T14:33:03.620Z,2.13
2022-09-26T14:35:34.187Z,2.47
2022-09-26T14:38:05.695Z,2.10
2022-09-26T14:40:36.029Z,1.90
2022-09-26T14:43:14.199Z,1.93
2022-09-26T14:45:51.293Z,2.10
2022-09-26T14:48:35.881Z,1.70
2022-09-26T14:51:07.324Z,1.60
2022-09-26T14:53:39.545Z,2.10
2022-09-26T14:56:10.945Z,1.70
2022-09-26T14:58:52.617Z,2.30
2022-09-26T15:01:25.940Z,1.97
2022-09-26T15:03:58.810Z,1.93
2022-09-26T15:06:28.931Z,2.13
2022-09-26T15:08:59.605Z,2.00
2022-09-26T15:11:35.703Z,1.97
2022-09-26T15:14:18.167Z,1.90
2022-09-26T15:16:51.217Z,2.10
2022-09-26T15:19:25.285Z,2.10
2022-09-26T15:21:59.751Z,2.17
2022-09-26T15:24:30.242Z,2.13
2022-09-26T15:27:01.541Z,2.13
2022-09-26T15:29:31.540Z,2.57
2022-09-26T15:32:00.938Z,2.10
2022-09-26T15:34:35.229Z,2.37
2022-09-26T15:37:12.176Z,2.50
2022-09-26T15:39:43.117Z,2.70
2022-09-26T15:42:44.285Z,2.20
2022-09-26T15:45:26.438Z,2.50
2022-09-26T15:47:56.585Z,2.67
2022-09-26T15:50:28.564Z,2.43
2022-09-26T15:53:03.021Z,2.70
2022-09-26T15:55:35.719Z,2.33
2022-09-26T15:58:07.961Z,2.93
2022-09-26T16:00:43.025Z,2.80
2022-09-26T16:03:47.570Z,2.43
2022-09-26T16:06:34.478Z,3.20
2022-09-26T16:09:09.204Z,2.77
2022-09-26T16:11:46.659Z,3.10
2022-09-26T16:14:27.033Z,2.60
2022-09-26T16:17:03.347Z,3.10
2022-09-26T16:19:35.486Z,3.00
2022-09-26T16:22:26.361Z,2.93
2022-09-26T16:24:54.831Z,2.80
2022-09-26T16:27:26.363Z,2.27
2022-09-26T16:29:55.022Z,3.13
2022-09-26T16:32:24.894Z,3.00
2022-09-26T16:34:53.194Z,3.13
2022-09-26T16:37:23.822Z,3.00
2022-09-26T16:39:57.198Z,3.07
2022-09-26T16:42:33.036Z,2.70
2022-09-26T16:45:05.782Z,2.40
2022-09-26T16:47:43.107Z,2.27
2022-09-26T16:50:27.880Z,2.30
2022-09-26T16:52:56.909Z,2.50
2022-09-26T16:55:27.152Z,2.30
2022-09-26T16:57:58.247Z,2.10
2022-09-26T17:00:51.331Z,2.30
2022-09-26T17:03:25.398Z,2.10
2022-09-26T17:05:55.760Z,2.33
2022-09-26T17:08:24.259Z,2.40
2022-09-26T17:10:54.107Z,1.90
2022-09-26T17:13:24.526Z,1.90
2022-09-26T17:15:55.843Z,2.00
2022-09-26T17:18:29.533Z,2.03
2022-09-26T17:20:59.705Z,2.30
2022-09-26T17:23:40.023Z,2.00
2022-09-26T17:26:13.947Z,2.30
2022-09-26T17:28:43.838Z,2.60
2022-09-26T17:31:20.118Z,2.30
2022-09-26T17:33:53.435Z,2.27
2022-09-26T17:36:23.980Z,2.20
2022-09-26T17:38:52.449Z,2.20
2022-09-26T17:41:20.708Z,2.37
2022-09-26T17:43:49.286Z,1.97
2022-09-26T17:46:18.070Z,2.20
2022-09-26T17:48:46.646Z,2.03
2022-09-26T17:51:16.296Z,2.00
2022-09-26T17:53:50.581Z,2.07
2022-09-26T17:56:20.359Z,1.63
2022-09-26T17:58:52.082Z,1.90
2022-09-26T18:01:24.967Z,1.70
2022-09-26T18:03:56.992Z,1.90
2022-09-26T18:06:29.383Z,2.07
2022-09-26T18:09:01.675Z,1.83
2022-09-26T18:11:30.382Z,2.03
2022-09-26T18:13:59.374Z,3.13
2022-09-26T18:16:28.078Z,2.30
2022-09-26T18:18:56.407Z,1.87
2022-09-26T18:21:26.882Z,2.00
2022-09-26T18:23:59.127Z,2.30
2022-09-26T18:26:31.392Z,2.20
2022-09-26T18:29:03.551Z,2.17
2022-09-26T18:31:34.502Z,2.30
2022-09-26T18:34:03.277Z,2.30
2022-09-26T18:36:34.161Z,2.57
2022-09-26T18:39:02.522Z,2.23
2022-09-26T18:41:31.062Z,2.90
2022-09-26T18:44:03.223Z,2.60
2022-09-26T18:46:32.234Z,2.50
2022-09-26T18:49:06.409Z,2.77
2022-09-26T18:51:36.136Z,2.53
2022-09-26T18:54:10.690Z,2.67
2022-09-26T18:56:57.741Z,2.90
2022-09-26T18:59:29.015Z,3.00
2022-09-26T19:01:59.474Z,2.80
2022-09-26T19:04:28.281Z,2.73
2022-09-26T19:07:01.208Z,2.83
2022-09-26T19:09:34.343Z,2.60
2022-09-26T19:12:03.654Z,3.00
2022-09-26T19:14:33.246Z,3.50
2022-09-26T19:17:01.858Z,3.17
2022-09-26T19:19:32.386Z,3.10
2022-09-26T19:22:08.130Z,2.97
2022-09-26T19:24:39.580Z,2.97
2022-09-26T19:27:12.231Z,3.27
2022-09-26T19:29:43.662Z,3.07
2022-09-26T19:32:20.674Z,3.00
2022-09-26T19:34:53.627Z,3.17
2022-09-26T19:37:23.321Z,3.23
2022-09-26T19:39:51.840Z,3.13
2022-09-26T19:42:20.166Z,4.50
2022-09-26T19:44:49.337Z,3.03
2022-09-26T19:47:19.237Z,3.53
2022-09-26T19:49:52.700Z,3.63
2022-09-26T19:52:23.376Z,3.53
2022-09-26T19:54:52.143Z,3.17
2022-09-26T19:57:22.734Z,3.30
2022-09-26T19:59:51.751Z,3.67
2022-09-26T20:02:22.231Z,3.30
2022-09-26T20:04:51.833Z,3.50
2022-09-26T20:07:21.011Z,4.03
2022-09-26T20:09:51.025Z,3.40
2022-09-26T20:12:19.341Z,3.63
2022-09-26T20:14:47.874Z,3.93
2022-09-26T20:17:24.102Z,3.57
2022-09-26T20:19:57.781Z,3.17
2022-09-26T20:22:27.994Z,3.40
2022-09-26T20:24:57.694Z,2.83
2022-09-26T20:27:29.304Z,3.90
2022-09-26T20:30:18.694Z,3.43
2022-09-26T20:32:47.267Z,3.43
2022-09-26T20:35:16.151Z,3.53
2022-09-26T20:37:45.120Z,3.23
2022-09-26T20:40:19.577Z,3.67
2022-09-26T20:42:51.475Z,3.17
2022-09-26T20:45:23.608Z,3.93
2022-09-26T20:47:51.997Z,3.87
2022-09-26T20:50:21.693Z,4.10
2022-09-26T20:52:50.309Z,4.17
2022-09-26T20:55:20.800Z,3.60
2022-09-26T20:57:50.882Z,4.07
2022-09-26T21:00:21.214Z,4.40
2022-09-26T21:02:52.690Z,3.90
2022-09-26T21:05:24.776Z,4.27
2022-09-26T21:07:53.910Z,3.80
2022-09-26T21:10:26.142Z,4.17
2022-09-26T21:12:54.789Z,3.50
2022-09-26T21:15:24.148Z,3.80
2022-09-26T21:17:54.003Z,3.93
2022-09-26T21:20:26.101Z,4.20
2022-09-26T21:22:54.887Z,3.67
2022-09-26T21:25:27.186Z,4.20
2022-09-26T21:27:58.406Z,3.63
2022-09-26T21:30:26.947Z,4.00
2022-09-26T21:32:58.413Z,4.10
2022-09-26T21:35:30.161Z,4.57
2022-09-26T21:38:00.180Z,4.20
2022-09-26T21:40:32.714Z,4.03
2022-09-26T21:43:06.957Z,4.00
2022-09-26T21:45:35.290Z,4.13
2022-09-26T21:48:04.066Z,4.83
2022-09-26T21:50:33.669Z,4.37
2022-09-26T21:53:07.945Z,4.00
2022-09-26T21:55:43.107Z,4.50
2022-09-26T21:58:15.914Z,4.87
2022-09-26T22:00:44.253Z,5.07
2022-09-26T22:03:12.794Z,4.50
2022-09-26T22:05:41.022Z,4.47
2022-09-26T22:08:09.372Z,5.30
2022-09-26T22:10:39.343Z,5.63
2022-09-26T22:13:07.580Z,5.43
2022-09-26T22:15:36.184Z,5.97
2022-09-26T22:18:04.768Z,5.80
2022-09-26T22:20:33.191Z,5.40
2022-09-26T22:23:01.738Z,5.77
2022-09-26T22:25:30.776Z,6.47
2022-09-26T22:28:00.395Z,5.97
2022-09-26T22:30:28.857Z,6.47
2022-09-26T22:32:57.496Z,6.63
2022-09-26T22:35:25.746Z,6.33
2022-09-26T22:37:54.175Z,7.00
2022-09-26T22:40:22.775Z,8.30
2022-09-26T22:42:51.793Z,8.57
2022-09-26T22:45:21.758Z,9.67
2022-09-26T22:47:50.296Z,11.37
2022-09-26T22:50:18.719Z,11.87
2022-09-26T22:52:47.320Z,14.87
2022-09-26T22:55:17.318Z,12.33
2022-09-26T22:57:46.045Z,11.03
2022-09-26T23:00:15.260Z,16.53
2022-09-26T23:02:45.170Z,19.00
2022-09-26T23:05:13.456Z,27.57
2022-09-26T23:07:42.081Z,30.77
2022-09-26T23:10:11.446Z,56.30
2022-09-26T23:12:40.355Z,58.40
2022-09-26T23:15:09.909Z,49.43
2022-09-26T23:17:39.180Z,47.03
2022-09-26T23:20:09.985Z,34.47
2022-09-26T23:22:39.778Z,16.03
2022-09-26T23:25:09.359Z,12.40
2022-09-26T23:27:37.621Z,11.27
2022-09-26T23:30:07.047Z,9.83
2022-09-26T23:32:35.693Z,8.83
2022-09-26T23:35:04.301Z,8.03
2022-09-26T23:37:33.977Z,7.13
2022-09-26T23:40:02.773Z,7.13
2022-09-26T23:42:31.410Z,6.90
2022-09-26T23:45:00.049Z,7.07
2022-09-26T23:47:28.462Z,6.40
2022-09-26T23:49:57.317Z,6.60
2022-09-26T23:52:25.725Z,6.57
2022-09-26T23:54:55.909Z,6.47
2022-09-26T23:57:24.999Z,5.70
2022-09-26T23:59:53.217Z,5.70
